createdAt,value
2023-03-28T00:01:21.260Z,98583.47
2023-03-28T00:03:48.701Z,98599.22
2023-03-28T00:06:18.562Z,98597.47
2023-03-28T00:08:47.444Z,98597.97
2023-03-28T00:11:20.050Z,98596.94
2023-03-28T00:14:04.418Z,98595.13
2023-03-28T00:16:35.399Z,98607.56
2023-03-28T00:19:07.186Z,98608.28
2023-03-28T00:21:38.086Z,98602.38
2023-03-28T00:24:10.753Z,98610.63
2023-03-28T00:26:38.479Z,98621.16
2023-03-28T00:29:11.473Z,98616.94
2023-03-28T00:31:39.580Z,98625.75
2023-03-28T00:34:07.556Z,98626.88
2023-03-28T00:36:35.514Z,98628.16
2023-03-28T00:39:06.412Z,98626.97
2023-03-28T00:41:39.730Z,98634.47
2023-03-28T00:44:49.007Z,98633.56
2023-03-28T00:47:30.802Z,98631.81
2023-03-28T00:50:08.918Z,98644.69
2023-03-28T00:52:52.202Z,98637.13
2023-03-28T00:55:27.079Z,98642.56
2023-03-28T00:57:54.877Z,98639.22
2023-03-28T01:00:24.769Z,98647.47
2023-03-28T01:02:56.503Z,98647.34
2023-03-28T01:05:29.852Z,98640.72
2023-03-28T01:08:17.026Z,98647.25
2023-03-28T01:10:46.296Z,98645.97
2023-03-28T01:13:18.254Z,98636.47
2023-03-28T01:15:45.747Z,98643.19
2023-03-28T01:18:16.278Z,98645.22
2023-03-28T01:21:07.741Z,98649.28
2023-03-28T01:24:10.877Z,98642.50
2023-03-28T01:27:03.143Z,98642.88
2023-03-28T01:29:54.769Z,98645.00
2023-03-28T01:33:02.993Z,98654.06
2023-03-28T01:36:34.147Z,98655.50
2023-03-28T01:39:30.086Z,98649.63
2023-03-28T01:42:26.482Z,98663.16
2023-03-28T01:45:15.307Z,98659.31
2023-03-28T01:47:56.481Z,98670.41
2023-03-28T01:50:39.687Z,98663.00
2023-03-28T01:53:34.781Z,98673.19
2023-03-28T01:56:13.365Z,98665.03
2023-03-28T01:59:00.129Z,98668.78
2023-03-28T02:02:04.191Z,98664.47
2023-03-28T02:04:35.341Z,98668.47
2023-03-28T02:07:03.261Z,98673.88
2023-03-28T02:09:37.929Z,98670.34
2023-03-28T02:12:21.099Z,98667.59
2023-03-28T02:15:11.891Z,98668.84
2023-03-28T02:18:06.885Z,98665.13
2023-03-28T02:21:02.209Z,98660.13
2023-03-28T02:23:51.290Z,98668.03
2023-03-28T02:26:41.823Z,98673.06
2023-03-28T02:29:25.655Z,98668.31
2023-03-28T02:32:11.943Z,98669.53
2023-03-28T02:34:41.737Z,98666.72
2023-03-28T02:37:28.273Z,98668.66
2023-03-28T02:40:08.427Z,98666.63
2023-03-28T02:42:55.185Z,98665.19
2023-03-28T02:46:04.368Z,98666.75
2023-03-28T02:48:40.227Z,98664.19
2023-03-28T02:51:41.652Z,98668.03
2023-03-28T02:54:30.126Z,98671.22
2023-03-28T02:57:49.726Z,98670.47
2023-03-28T03:00:19.898Z,98670.03
2023-03-28T03:02:51.506Z,98671.78
2023-03-28T03:05:20.988Z,98673.38
2023-03-28T03:07:52.144Z,98678.28
2023-03-28T03:10:20.100Z,98675.41
2023-03-28T03:12:48.131Z,98676.66
2023-03-28T03:15:18.336Z,98690.00
2023-03-28T03:17:52.907Z,98683.72
2023-03-28T03:20:34.108Z,98687.75
2023-03-28T03:23:03.235Z,98690.03
2023-03-28T03:25:34.462Z,98685.50
2023-03-28T03:28:13.100Z,98681.34
2023-03-28T03:30:41.494Z,98681.22
2023-03-28T03:33:23.454Z,98685.09
2023-03-28T03:35:57.178Z,98686.06
2023-03-28T03:38:24.866Z,98690.53
2023-03-28T03:40:52.761Z,98687.19
2023-03-28T03:43:20.754Z,98686.81
2023-03-28T03:45:48.439Z,98687.53
2023-03-28T03:48:15.931Z,98691.25
2023-03-28T03:50:43.304Z,98687.97
2023-03-28T03:53:13.877Z,98684.19
2023-03-28T03:55:53.301Z,98690.00
2023-03-28T03:58:21.008Z,98692.53
2023-03-28T04:00:50.198Z,98683.09
2023-03-28T04:03:34.356Z,98683.34
2023-03-28T04:06:05.209Z,98688.88
2023-03-28T04:08:33.994Z,98691.13
2023-03-28T04:11:01.917Z,98689.31
2023-03-28T04:13:34.750Z,98689.31
2023-03-28T04:16:04.224Z,98691.69
2023-03-28T04:18:45.525Z,98685.25
2023-03-28T04:21:12.839Z,98698.53
2023-03-28T04:23:43.980Z,98687.00
2023-03-28T04:26:50.200Z,98685.97
2023-03-28T04:29:25.357Z,98691.06
2023-03-28T04:32:12.870Z,98692.31
2023-03-28T04:35:03.321Z,98703.13
2023-03-28T04:37:30.851Z,98700.94
2023-03-28T04:40:04.323Z,98705.06
2023-03-28T04:42:43.622Z,98705.66
2023-03-28T04:45:18.040Z,98722.41
2023-03-28T04:47:48.276Z,98713.13
2023-03-28T04:50:18.016Z,98722.53
2023-03-28T04:52:45.739Z,98721.56
2023-03-28T04:55:16.065Z,98727.78
2023-03-28T04:57:43.942Z,98739.16
2023-03-28T05:00:13.073Z,98734.03
2023-03-28T05:03:04.437Z,98730.88
2023-03-28T05:05:36.819Z,98739.84
2023-03-28T05:08:09.073Z,98742.63
2023-03-28T05:10:36.963Z,98741.81
2023-03-28T05:13:09.627Z,98742.22
2023-03-28T05:15:47.549Z,98741.91
2023-03-28T05:18:33.669Z,98747.75
2023-03-28T05:21:01.653Z,98751.66
2023-03-28T05:23:29.144Z,98749.84
2023-03-28T05:25:58.909Z,98748.44
2023-03-28T05:28:29.372Z,98749.16
2023-03-28T05:30:57.269Z,98762.19
2023-03-28T05:33:25.492Z,98766.47
2023-03-28T05:35:54.498Z,98771.03
2023-03-28T05:38:21.956Z,98762.31
2023-03-28T05:40:53.782Z,98768.13
2023-03-28T05:43:21.217Z,98765.09
2023-03-28T05:45:49.358Z,98772.00
2023-03-28T05:48:22.354Z,98777.41
2023-03-28T05:50:53.437Z,98780.06
2023-03-28T05:53:22.258Z,98786.28
2023-03-28T05:55:50.627Z,98791.41
2023-03-28T05:58:18.430Z,98788.50
2023-03-28T06:00:46.658Z,98784.75
2023-03-28T06:03:17.392Z,98790.16
2023-03-28T06:05:46.317Z,98793.06
2023-03-28T06:08:27.333Z,98796.53
2023-03-28T06:10:58.814Z,98789.06
2023-03-28T06:13:31.269Z,98792.66
2023-03-28T06:15:59.490Z,98797.50
2023-03-28T06:18:32.813Z,98800.00
2023-03-28T06:21:00.674Z,98799.31
2023-03-28T06:23:28.537Z,98807.63
2023-03-28T06:25:56.678Z,98818.03
2023-03-28T06:28:25.669Z,98809.72
2023-03-28T06:31:22.565Z,98813.44
2023-03-28T06:33:50.740Z,98808.03
2023-03-28T06:36:21.118Z,98815.81
2023-03-28T06:38:50.390Z,98824.09
2023-03-28T06:41:17.930Z,98823.28
2023-03-28T06:43:45.382Z,98816.75
2023-03-28T06:46:31.618Z,98827.53
2023-03-28T06:49:00.811Z,98831.72
2023-03-28T06:51:28.204Z,98822.31
2023-03-28T06:53:55.769Z,98831.19
2023-03-28T06:56:27.430Z,98821.06
2023-03-28T06:58:56.707Z,98823.97
2023-03-28T07:01:26.785Z,98826.41
2023-03-28T07:04:00.210Z,98828.00
2023-03-28T07:06:28.725Z,98830.63
2023-03-28T07:08:58.261Z,98833.91
2023-03-28T07:11:34.612Z,98827.94
2023-03-28T07:14:02.041Z,98832.91
2023-03-28T07:16:29.552Z,98843.28
2023-03-28T07:18:56.892Z,98847.13
2023-03-28T07:21:31.904Z,98840.31
2023-03-28T07:24:01.623Z,98849.44
2023-03-28T07:26:36.552Z,98852.50
2023-03-28T07:29:03.957Z,98850.84
2023-03-28T07:31:31.499Z,98847.13
2023-03-28T07:34:00.297Z,98850.25
2023-03-28T07:36:28.867Z,98848.22
2023-03-28T07:39:02.658Z,98850.28
2023-03-28T07:41:31.254Z,98854.97
2023-03-28T07:43:59.803Z,98858.81
2023-03-28T07:46:27.303Z,98863.75
2023-03-28T07:48:56.222Z,98862.63
2023-03-28T07:51:23.925Z,98858.31
2023-03-28T07:53:51.971Z,98860.19
2023-03-28T07:56:19.662Z,98860.22
2023-03-28T07:59:19.489Z,98858.63
2023-03-28T08:01:50.541Z,98861.50
2023-03-28T08:04:19.750Z,98864.25
2023-03-28T08:07:04.729Z,98868.81
2023-03-28T08:09:32.143Z,98875.25
2023-03-28T08:12:11.857Z,98873.19
2023-03-28T08:14:39.333Z,98865.97
2023-03-28T08:17:06.738Z,98868.59
2023-03-28T08:19:34.182Z,98870.13
2023-03-28T08:22:21.745Z,98872.47
2023-03-28T08:25:09.659Z,98876.50
2023-03-28T08:27:38.708Z,98877.47
2023-03-28T08:30:11.451Z,98878.25
2023-03-28T08:32:50.151Z,98883.69
2023-03-28T08:35:17.850Z,98877.72
2023-03-28T08:37:47.270Z,98878.72
2023-03-28T08:40:19.440Z,98884.41
2023-03-28T08:43:36.608Z,98884.81
2023-03-28T08:46:04.776Z,98886.03
2023-03-28T08:48:41.251Z,98877.47
2023-03-28T08:51:31.507Z,98881.63
2023-03-28T08:54:24.497Z,98876.25
2023-03-28T08:56:55.461Z,98887.34
2023-03-28T09:00:14.140Z,98884.84
2023-03-28T09:02:43.254Z,98890.38
2023-03-28T09:05:23.119Z,98875.22
2023-03-28T09:08:09.039Z,98883.22
2023-03-28T09:10:56.574Z,98893.44
2023-03-28T09:13:40.817Z,98891.78
2023-03-28T09:16:24.769Z,98882.63
2023-03-28T09:19:36.969Z,98888.56
2023-03-28T09:23:03.376Z,98886.97
2023-03-28T09:26:17.547Z,98885.53
2023-03-28T09:29:05.825Z,98875.25
2023-03-28T09:32:06.917Z,98881.19
2023-03-28T09:34:45.762Z,98885.53
2023-03-28T09:37:39.569Z,98880.47
2023-03-28T09:40:26.216Z,98885.66
2023-03-28T09:43:36.834Z,98885.81
2023-03-28T09:46:44.402Z,98880.63
2023-03-28T09:49:26.928Z,98879.13
2023-03-28T09:51:59.054Z,98879.72
2023-03-28T09:54:37.745Z,98867.81
2023-03-28T09:57:05.870Z,98880.84
2023-03-28T09:59:42.054Z,98885.16
2023-03-28T10:02:39.943Z,98866.09
2023-03-28T10:05:37.378Z,98866.38
2023-03-28T10:08:36.811Z,98860.34
2023-03-28T10:11:21.456Z,98866.75
2023-03-28T10:13:51.796Z,98861.56
2023-03-28T10:16:30.772Z,98850.28
2023-03-28T10:19:26.188Z,98860.59
2023-03-28T10:22:20.186Z,98858.47
2023-03-28T10:24:49.880Z,98853.78
2023-03-28T10:27:24.725Z,98844.72
2023-03-28T10:29:56.318Z,98848.50
2023-03-28T10:32:30.786Z,98844.47
2023-03-28T10:35:28.014Z,98835.94
2023-03-28T10:38:06.116Z,98822.66
2023-03-28T10:41:09.897Z,98827.09
2023-03-28T10:43:52.975Z,98831.00
2023-03-28T10:46:37.564Z,98821.63
2023-03-28T10:49:50.709Z,98836.47
2023-03-28T10:53:00.370Z,98824.28
2023-03-28T10:55:40.486Z,98826.63
2023-03-28T10:58:39.952Z,98820.00
2023-03-28T11:01:22.273Z,98813.66
2023-03-28T11:04:35.713Z,98812.75
2023-03-28T11:07:52.550Z,98820.50
2023-03-28T11:11:13.869Z,98807.81
2023-03-28T11:14:20.338Z,98809.09
2023-03-28T11:17:12.361Z,98804.22
2023-03-28T11:20:17.220Z,98810.09
2023-03-28T11:23:06.952Z,98805.25
2023-03-28T11:26:09.703Z,98807.19
2023-03-28T11:29:14.187Z,98791.03
2023-03-28T11:32:03.168Z,98778.69
2023-03-28T11:34:42.739Z,98771.72
2023-03-28T11:37:23.335Z,98782.28
2023-03-28T11:40:21.524Z,98788.72
2023-03-28T11:43:04.778Z,98777.13
2023-03-28T11:45:52.201Z,98779.59
2023-03-28T11:48:34.786Z,98778.00
2023-03-28T11:51:08.859Z,98774.38
2023-03-28T11:53:57.956Z,98770.00
2023-03-28T11:57:07.286Z,98764.31
2023-03-28T12:00:33.225Z,98762.44
2023-03-28T12:03:50.032Z,98757.56
2023-03-28T12:06:29.448Z,98749.88
2023-03-28T12:09:08.129Z,98732.88
2023-03-28T12:12:04.665Z,98719.66
2023-03-28T12:14:43.958Z,98726.94
2023-03-28T12:17:29.092Z,98724.25
2023-03-28T12:19:56.924Z,98711.06
2023-03-28T12:22:46.618Z,98710.78
2023-03-28T12:25:39.290Z,98711.63
2023-03-28T12:28:27.081Z,98696.19
2023-03-28T12:31:06.474Z,98692.84
2023-03-28T12:34:06.706Z,98676.81
2023-03-28T12:37:12.515Z,98673.28
2023-03-28T12:40:15.485Z,98663.69
2023-03-28T12:42:45.593Z,98680.50
2023-03-28T12:45:20.995Z,98681.72
2023-03-28T12:47:52.492Z,98674.03
2023-03-28T12:50:31.592Z,98671.66
2023-03-28T12:53:00.403Z,98671.47
2023-03-28T12:55:35.603Z,98669.50
2023-03-28T12:58:36.182Z,98663.78
2023-03-28T13:01:50.457Z,98675.78
2023-03-28T13:05:21.289Z,98672.81
2023-03-28T13:08:18.796Z,98658.00
2023-03-28T13:11:28.419Z,98660.38
2023-03-28T13:14:28.738Z,98663.50
2023-03-28T13:17:26.843Z,98654.69
2023-03-28T13:20:14.775Z,98668.25
2023-03-28T13:22:57.967Z,98654.28
2023-03-28T13:25:29.789Z,98651.59
2023-03-28T13:28:01.031Z,98655.25
2023-03-28T13:30:32.508Z,98644.41
2023-03-28T13:33:16.547Z,98638.69
2023-03-28T13:35:59.985Z,98642.59
2023-03-28T13:38:27.590Z,98642.38
2023-03-28T13:41:00.212Z,98633.88
2023-03-28T13:43:29.625Z,98635.56
2023-03-28T13:46:02.465Z,98620.53
2023-03-28T13:48:38.108Z,98616.53
2023-03-28T13:51:10.249Z,98620.91
2023-03-28T13:53:46.945Z,98618.03
2023-03-28T13:56:21.742Z,98621.81
2023-03-28T13:58:51.927Z,98614.00
2023-03-28T14:01:46.563Z,98600.75
2023-03-28T14:04:33.971Z,98594.91
2023-03-28T14:07:02.559Z,98592.97
2023-03-28T14:09:31.174Z,98599.03
2023-03-28T14:12:04.592Z,98590.53
2023-03-28T14:14:37.708Z,98588.88
2023-03-28T14:17:11.406Z,98588.81
2023-03-28T14:19:43.586Z,98591.56
2023-03-28T14:22:16.167Z,98592.34
2023-03-28T14:24:43.987Z,98580.09
2023-03-28T14:27:29.400Z,98585.75
2023-03-28T14:29:59.498Z,98581.66
2023-03-28T14:32:33.006Z,98569.56
2023-03-28T14:35:22.587Z,98567.09
2023-03-28T14:37:55.786Z,98555.16
2023-03-28T14:40:29.010Z,98551.22
2023-03-28T14:43:07.313Z,98552.94
2023-03-28T14:45:47.541Z,98540.25
2023-03-28T14:48:22.185Z,98540.38
2023-03-28T14:50:52.961Z,98534.44
2023-03-28T14:53:29.194Z,98535.44
2023-03-28T14:56:07.033Z,98539.47
2023-03-28T14:58:35.757Z,98530.75
2023-03-28T15:01:07.699Z,98524.50
2023-03-28T15:03:45.879Z,98519.56
2023-03-28T15:06:18.662Z,98513.13
2023-03-28T15:08:46.746Z,98513.69
2023-03-28T15:11:44.993Z,98506.59
2023-03-28T15:14:48.344Z,98507.88
2023-03-28T15:17:22.375Z,98496.75
2023-03-28T15:19:58.461Z,98499.22
2023-03-28T15:22:28.905Z,98505.50
2023-03-28T15:24:58.003Z,98491.72
2023-03-28T15:28:16.314Z,98486.63
2023-03-28T15:30:57.826Z,98479.16
2023-03-28T15:33:28.075Z,98476.56
2023-03-28T15:36:07.720Z,98480.03
2023-03-28T15:38:40.025Z,98472.31
2023-03-28T15:41:19.875Z,98463.78
2023-03-28T15:44:33.742Z,98458.84
2023-03-28T15:47:09.310Z,98452.97
2023-03-28T15:49:37.843Z,98456.22
2023-03-28T15:52:17.881Z,98448.38
2023-03-28T15:54:50.733Z,98455.78
2023-03-28T15:57:19.950Z,98443.47
2023-03-28T15:59:51.108Z,98436.25
2023-03-28T16:02:24.439Z,98441.28
2023-03-28T16:05:00.706Z,98438.19
2023-03-28T16:07:36.846Z,98440.13
2023-03-28T16:10:04.857Z,98446.63
2023-03-28T16:12:42.647Z,98448.94
2023-03-28T16:15:31.610Z,98447.53
2023-03-28T16:18:07.691Z,98437.09
2023-03-28T16:20:46.952Z,98439.09
2023-03-28T16:23:14.976Z,98422.53
2023-03-28T16:25:43.266Z,98424.16
2023-03-28T16:28:18.446Z,98419.13
2023-03-28T16:30:46.641Z,98418.63
2023-03-28T16:33:14.183Z,98418.09
2023-03-28T16:35:41.280Z,98407.44
2023-03-28T16:38:11.757Z,98400.56
2023-03-28T16:40:39.535Z,98402.53
2023-03-28T16:43:07.982Z,98405.97
2023-03-28T16:45:36.067Z,98400.66
2023-03-28T16:48:03.477Z,98398.44
2023-03-28T16:50:30.884Z,98391.47
2023-03-28T16:52:57.885Z,98404.22
2023-03-28T16:55:25.281Z,98402.06
2023-03-28T16:57:52.678Z,98401.84
2023-03-28T17:00:24.404Z,98399.78
2023-03-28T17:02:51.919Z,98385.34
2023-03-28T17:05:19.629Z,98389.91
2023-03-28T17:07:51.903Z,98386.25
2023-03-28T17:10:19.470Z,98379.94
2023-03-28T17:12:46.497Z,98379.34
2023-03-28T17:15:13.914Z,98380.22
2023-03-28T17:17:41.384Z,98371.50
2023-03-28T17:20:09.293Z,98364.75
2023-03-28T17:22:36.373Z,98353.47
2023-03-28T17:25:04.306Z,98356.56
2023-03-28T17:27:31.708Z,98357.00
2023-03-28T17:29:59.219Z,98349.16
2023-03-28T17:32:26.503Z,98343.31
2023-03-28T17:34:53.945Z,98349.03
2023-03-28T17:37:24.340Z,98345.53
2023-03-28T17:39:52.550Z,98343.06
2023-03-28T17:42:20.181Z,98340.94
2023-03-28T17:44:48.476Z,98336.22
2023-03-28T17:47:15.973Z,98337.22
2023-03-28T17:49:43.212Z,98336.41
2023-03-28T17:52:10.736Z,98340.09
2023-03-28T17:54:38.182Z,98335.09
2023-03-28T17:57:06.848Z,98328.81
2023-03-28T17:59:34.546Z,98326.13
2023-03-28T18:02:03.016Z,98330.25
2023-03-28T18:04:30.717Z,98319.16
2023-03-28T18:07:24.239Z,98317.38
2023-03-28T18:09:52.110Z,98319.28
2023-03-28T18:12:20.041Z,98325.13
2023-03-28T18:14:48.390Z,98319.97
2023-03-28T18:17:16.018Z,98325.75
2023-03-28T18:19:43.383Z,98322.31
2023-03-28T18:22:10.857Z,98317.44
2023-03-28T18:24:38.206Z,98315.78
2023-03-28T18:27:05.798Z,98307.56
2023-03-28T18:29:33.262Z,98294.69
2023-03-28T18:32:01.200Z,98298.25
2023-03-28T18:34:28.575Z,98296.94
2023-03-28T18:36:56.303Z,98293.06
2023-03-28T18:39:23.673Z,98295.97
2023-03-28T18:41:51.197Z,98290.50
2023-03-28T18:44:19.141Z,98293.47
2023-03-28T18:46:54.532Z,98292.69
2023-03-28T18:49:22.613Z,98285.94
2023-03-28T18:51:53.172Z,98277.03
2023-03-28T18:54:20.215Z,98286.41
2023-03-28T18:56:48.418Z,98292.38
2023-03-28T18:59:15.944Z,98280.75
2023-03-28T19:01:49.655Z,98283.41
2023-03-28T19:04:17.892Z,98288.25
2023-03-28T19:06:45.357Z,98281.19
2023-03-28T19:09:13.266Z,98283.41
2023-03-28T19:11:40.977Z,98283.88
2023-03-28T19:14:08.459Z,98280.38
2023-03-28T19:16:35.518Z,98291.13
2023-03-28T19:19:03.011Z,98280.38
2023-03-28T19:21:31.036Z,98283.22
2023-03-28T19:23:58.538Z,98286.59
2023-03-28T19:26:26.459Z,98293.63
2023-03-28T19:28:53.606Z,98297.09
2023-03-28T19:31:24.012Z,98295.59
2023-03-28T19:33:51.999Z,98290.72
2023-03-28T19:36:19.600Z,98294.88
2023-03-28T19:38:47.104Z,98298.78
2023-03-28T19:41:24.651Z,98305.25
2023-03-28T19:43:52.082Z,98297.13
2023-03-28T19:46:37.151Z,98298.56
2023-03-28T19:49:06.792Z,98292.69
2023-03-28T19:51:34.390Z,98293.66
2023-03-28T19:54:01.905Z,98301.91
2023-03-28T19:56:30.581Z,98294.81
2023-03-28T19:58:57.594Z,98293.91
2023-03-28T20:01:25.011Z,98293.47
2023-03-28T20:03:53.340Z,98284.97
2023-03-28T20:06:22.313Z,98265.34
2023-03-28T20:08:50.622Z,98259.91
2023-03-28T20:11:18.187Z,98261.38
2023-03-28T20:13:46.223Z,98266.13
2023-03-28T20:16:14.680Z,98261.63
2023-03-28T20:18:42.246Z,98266.75
2023-03-28T20:21:12.460Z,98260.69
2023-03-28T20:23:40.120Z,98255.94
2023-03-28T20:26:20.434Z,98244.97
2023-03-28T20:28:50.331Z,98255.13
2023-03-28T20:31:18.945Z,98254.56
2023-03-28T20:33:46.398Z,98262.63
2023-03-28T20:36:13.748Z,98257.00
2023-03-28T20:38:41.136Z,98254.56
2023-03-28T20:41:19.990Z,98252.66
2023-03-28T20:43:47.742Z,98251.16
2023-03-28T20:46:20.560Z,98264.44
2023-03-28T20:48:53.121Z,98252.50
2023-03-28T20:51:22.917Z,98264.94
2023-03-28T20:53:56.949Z,98255.63
2023-03-28T20:56:25.671Z,98252.19
2023-03-28T20:58:53.736Z,98253.81
2023-03-28T21:01:28.470Z,98254.00
2023-03-28T21:03:58.752Z,98249.59
2023-03-28T21:06:30.407Z,98250.34
2023-03-28T21:09:00.881Z,98261.22
2023-03-28T21:11:31.860Z,98253.00
2023-03-28T21:14:00.058Z,98250.84
2023-03-28T21:16:28.432Z,98252.00
2023-03-28T21:18:56.467Z,98256.16
2023-03-28T21:21:24.292Z,98256.88
2023-03-28T21:23:53.108Z,98263.28
2023-03-28T21:26:22.797Z,98263.66
2023-03-28T21:28:54.348Z,98271.72
2023-03-28T21:31:26.283Z,98260.16
2023-03-28T21:33:58.124Z,98252.81
2023-03-28T21:36:26.541Z,98253.81
2023-03-28T21:38:54.781Z,98216.94
2023-03-28T21:41:22.645Z,98224.34
2023-03-28T21:43:50.318Z,98239.25
2023-03-28T21:46:18.911Z,98240.66
2023-03-28T21:48:47.773Z,98236.66
2023-03-28T21:51:16.342Z,98219.00
2023-03-28T21:53:43.393Z,98221.53
2023-03-28T21:56:12.686Z,98215.53
2023-03-28T21:58:40.280Z,98199.97
2023-03-28T22:01:07.290Z,98200.16
2023-03-28T22:03:37.563Z,98182.25
2023-03-28T22:06:05.312Z,98181.13
2023-03-28T22:08:32.995Z,98187.63
2023-03-28T22:11:02.627Z,98189.44
2023-03-28T22:13:30.682Z,98194.78
2023-03-28T22:15:59.756Z,98229.91
2023-03-28T22:18:27.844Z,98236.59
2023-03-28T22:20:55.514Z,98238.28
2023-03-28T22:23:24.284Z,98230.50
2023-03-28T22:25:52.806Z,98221.41
2023-03-28T22:28:24.434Z,98203.06
2023-03-28T22:30:55.106Z,98189.69
2023-03-28T22:33:24.023Z,98182.22
2023-03-28T22:35:51.879Z,98188.91
2023-03-28T22:38:19.485Z,98216.19
2023-03-28T22:40:47.538Z,98232.56
2023-03-28T22:43:16.059Z,98237.03
2023-03-28T22:45:43.171Z,98249.22
2023-03-28T22:48:14.318Z,98227.63
2023-03-28T22:50:44.153Z,98221.19
2023-03-28T22:53:12.442Z,98228.28
2023-03-28T22:55:40.208Z,98230.88
2023-03-28T22:58:08.097Z,98230.66
2023-03-28T23:00:36.208Z,98238.28
2023-03-28T23:03:03.980Z,98227.47
2023-03-28T23:05:31.904Z,98235.44
2023-03-28T23:08:00.089Z,98248.47
2023-03-28T23:10:27.451Z,98272.41
2023-03-28T23:12:54.834Z,98284.03
2023-03-28T23:15:22.380Z,98277.38
2023-03-28T23:17:49.520Z,98258.44
2023-03-28T23:20:19.037Z,98260.34
2023-03-28T23:22:48.501Z,98251.41
2023-03-28T23:25:19.543Z,98250.06
2023-03-28T23:27:47.123Z,98240.22
2023-03-28T23:30:15.441Z,98243.50
2023-03-28T23:32:43.057Z,98237.25
2023-03-28T23:35:11.822Z,98245.13
2023-03-28T23:37:39.511Z,98244.91
2023-03-28T23:40:14.005Z,98236.09
2023-03-28T23:42:43.716Z,98222.69
2023-03-28T23:45:12.015Z,98231.44
2023-03-28T23:47:39.320Z,98228.19
2023-03-28T23:50:08.830Z,98218.97
2023-03-28T23:52:36.856Z,98210.94
2023-03-28T23:55:04.672Z,98216.06
2023-03-28T23:57:32.174Z,98186.69
2023-03-28T23:59:59.625Z,98173.53
